createdAt,value
2023-03-02T00:06:01.782Z,130.70
2023-03-02T00:16:08.743Z,140.00
2023-03-02T00:26:15.200Z,133.20
2023-03-02T00:36:23.242Z,140.50
2023-03-02T00:46:30.157Z,143.80
2023-03-02T00:56:36.956Z,138.50
2023-03-02T01:06:48.380Z,139.10
2023-03-02T01:16:54.883Z,134.10
2023-03-02T01:27:01.529Z,137.80
2023-03-02T01:37:07.837Z,142.40
2023-03-02T01:47:21.862Z,154.20
2023-03-02T01:57:31.134Z,148.10
2023-03-02T02:07:38.277Z,151.10
2023-03-02T02:17:44.711Z,153.20
2023-03-02T02:27:51.311Z,154.20
2023-03-02T02:38:08.282Z,144.60
2023-03-02T02:48:20.496Z,126.20
2023-03-02T02:58:26.771Z,124.30
2023-03-02T03:08:45.280Z,125.90
2023-03-02T03:18:52.429Z,128.00
2023-03-02T03:28:58.962Z,119.80
2023-03-02T03:39:06.896Z,117.80
2023-03-02T03:49:13.319Z,110.70
2023-03-02T03:59:24.160Z,116.30
2023-03-02T04:09:32.777Z,128.00
2023-03-02T04:19:39.104Z,116.00
2023-03-02T04:29:46.078Z,112.80
2023-03-02T04:39:53.948Z,116.20
2023-03-02T04:50:00.297Z,112.20
2023-03-02T05:00:10.989Z,124.90
2023-03-02T05:10:18.759Z,142.60
2023-03-02T05:20:32.675Z,139.50
2023-03-02T05:30:39.028Z,126.00
2023-03-02T05:40:45.678Z,119.90
2023-03-02T05:50:52.125Z,116.60
2023-03-02T06:00:58.427Z,131.20
2023-03-02T06:11:04.827Z,124.90
2023-03-02T06:21:11.328Z,145.80
2023-03-02T06:31:17.688Z,125.40
2023-03-02T06:41:24.052Z,125.50
2023-03-02T06:51:30.432Z,132.50
2023-03-02T07:01:36.888Z,116.50
2023-03-02T07:11:43.404Z,104.60
2023-03-02T07:21:50.106Z,112.90
2023-03-02T07:32:02.235Z,108.80
2023-03-02T07:42:10.076Z,107.10
2023-03-02T07:52:16.616Z,91.30
2023-03-02T08:02:23.068Z,99.10
2023-03-02T08:12:29.824Z,93.00
2023-03-02T08:22:36.713Z,100.10
2023-03-02T08:32:43.656Z,94.50
2023-03-02T08:42:51.111Z,67.60
2023-03-02T08:52:57.433Z,52.60
2023-03-02T09:03:03.996Z,45.90
2023-03-02T09:13:10.273Z,43.40
2023-03-02T09:23:16.569Z,44.50
2023-03-02T09:33:23.044Z,42.90
2023-03-02T09:43:41.397Z,37.50
2023-03-02T09:53:57.409Z,36.80
2023-03-02T10:04:23.524Z,34.70
2023-03-02T10:14:43.384Z,31.80
2023-03-02T10:25:10.477Z,36.30
2023-03-02T10:35:27.465Z,29.40
2023-03-02T10:45:40.419Z,33.50
2023-03-02T10:55:55.410Z,28.60
2023-03-02T11:06:28.444Z,31.60
2023-03-02T11:16:41.429Z,31.00
2023-03-02T11:27:03.491Z,30.00
2023-03-02T11:37:45.709Z,30.80
2023-03-02T11:48:04.158Z,37.80
2023-03-02T11:58:25.458Z,37.90
2023-03-02T12:08:42.493Z,36.50
2023-03-02T12:18:59.483Z,33.80
2023-03-02T12:29:24.527Z,34.90
2023-03-02T12:40:07.503Z,36.40
2023-03-02T12:50:29.504Z,32.30
2023-03-02T13:00:42.512Z,33.80
2023-03-02T13:11:00.527Z,32.50
2023-03-02T13:21:13.519Z,34.80
2023-03-02T13:31:28.681Z,31.20
2023-03-02T13:41:43.554Z,29.80
2023-03-02T13:59:57.897Z,27.60
2023-03-02T14:10:04.240Z,26.70
2023-03-02T14:20:15.628Z,33.50
2023-03-02T14:30:22.617Z,29.35
2023-03-02T14:40:29.582Z,36.80
2023-03-02T14:50:39.991Z,33.40
2023-03-02T15:00:46.663Z,35.80
2023-03-02T15:10:52.964Z,37.50
2023-03-02T15:20:59.341Z,33.90
2023-03-02T15:31:13.626Z,37.10
2023-03-02T15:41:20.866Z,37.60
2023-03-02T15:51:27.215Z,36.10
2023-03-02T16:01:34.978Z,44.90
2023-03-02T16:11:41.769Z,46.10
2023-03-02T16:21:49.265Z,43.80
2023-03-02T16:31:55.660Z,47.10
2023-03-02T16:42:02.141Z,47.70
2023-03-02T16:52:08.469Z,55.30
2023-03-02T17:02:14.780Z,49.20
2023-03-02T17:12:21.108Z,69.70
2023-03-02T17:22:27.485Z,85.10
2023-03-02T17:32:33.782Z,91.90
2023-03-02T17:42:40.208Z,91.90
2023-03-02T17:52:46.600Z,85.00
2023-03-02T18:02:53.407Z,111.40
2023-03-02T18:12:59.784Z,72.80
2023-03-02T18:23:06.140Z,60.50
2023-03-02T18:33:12.495Z,74.70
2023-03-02T18:43:18.830Z,74.60
2023-03-02T18:53:25.161Z,95.20
2023-03-02T19:03:32.015Z,112.50
2023-03-02T19:13:38.362Z,97.60
2023-03-02T19:23:46.509Z,104.10
2023-03-02T19:33:52.936Z,88.00
2023-03-02T19:43:59.982Z,100.80
2023-03-02T19:54:06.482Z,101.80
2023-03-02T20:04:12.828Z,100.60
2023-03-02T20:14:32.701Z,111.50
2023-03-02T20:24:40.396Z,112.90
2023-03-02T20:34:46.892Z,113.20
2023-03-02T20:44:54.051Z,106.10
2023-03-02T20:55:00.600Z,112.70
2023-03-02T21:05:07.894Z,116.70
2023-03-02T21:15:14.309Z,134.60
2023-03-02T21:25:20.929Z,144.30
2023-03-02T21:35:27.402Z,134.80
2023-03-02T21:45:34.336Z,151.00
2023-03-02T21:55:41.106Z,133.30
2023-03-02T22:05:47.485Z,117.70
2023-03-02T22:16:13.678Z,118.80
2023-03-02T22:26:20.130Z,139.40
2023-03-02T22:36:26.594Z,128.30
2023-03-02T22:46:32.945Z,127.00
2023-03-02T22:56:44.627Z,148.80
2023-03-02T23:06:56.133Z,134.40
2023-03-02T23:17:16.786Z,124.80
2023-03-02T23:27:23.186Z,122.30
2023-03-02T23:37:29.530Z,123.00
2023-03-02T23:47:36.346Z,119.30
2023-03-02T23:57:42.658Z,106.00
